createdAt,value
2023-03-04T00:00:14.819Z,21.05
2023-03-04T00:01:17.268Z,22.77
2023-03-04T00:02:18.911Z,23.58
2023-03-04T00:03:21.597Z,21.33
2023-03-04T00:04:23.151Z,20.90
2023-03-04T00:05:27.545Z,21.73
2023-03-04T00:06:29.060Z,20.88
2023-03-04T00:07:31.610Z,20.65
2023-03-04T00:08:33.298Z,21.60
2023-03-04T00:09:35.808Z,21.27
2023-03-04T00:10:37.325Z,20.92
2023-03-04T00:11:39.750Z,24.80
2023-03-04T00:12:42.586Z,21.63
2023-03-04T00:13:45.100Z,22.17
2023-03-04T00:14:46.677Z,25.92
2023-03-04T00:15:49.950Z,22.02
2023-03-04T00:16:51.467Z,20.50
2023-03-04T00:17:53.917Z,18.73
2023-03-04T00:18:56.150Z,21.25
2023-03-04T00:19:58.748Z,20.92
2023-03-04T00:21:00.264Z,19.40
2023-03-04T00:22:02.829Z,19.60
2023-03-04T00:23:04.382Z,21.67
2023-03-04T00:24:07.839Z,22.27
2023-03-04T00:25:09.658Z,19.65
2023-03-04T00:26:13.313Z,18.88
2023-03-04T00:27:14.856Z,21.60
2023-03-04T00:28:18.630Z,20.00
2023-03-04T00:29:20.137Z,18.48
2023-03-04T00:30:22.855Z,20.52
2023-03-04T00:31:24.396Z,19.80
2023-03-04T00:32:27.021Z,20.92
2023-03-04T00:33:28.600Z,19.40
2023-03-04T00:34:32.832Z,22.27
2023-03-04T00:35:34.542Z,19.05
2023-03-04T00:36:37.047Z,20.85
2023-03-04T00:37:38.547Z,22.05
2023-03-04T00:38:40.995Z,21.38
2023-03-04T00:39:42.470Z,20.75
2023-03-04T00:40:44.919Z,21.88
2023-03-04T00:41:46.379Z,19.42
2023-03-04T00:42:48.882Z,22.85
2023-03-04T00:43:52.936Z,23.15
2023-03-04T00:44:55.344Z,23.52
2023-03-04T00:45:56.930Z,20.25
2023-03-04T00:46:59.372Z,20.65
2023-03-04T00:48:00.846Z,21.08
2023-03-04T00:49:03.464Z,18.35
2023-03-04T00:50:05.818Z,21.35
2023-03-04T00:51:08.350Z,20.05
2023-03-04T00:52:10.513Z,23.75
2023-03-04T00:53:12.957Z,20.05
2023-03-04T00:54:14.545Z,20.42
2023-03-04T00:55:17.201Z,21.90
2023-03-04T00:56:19.061Z,19.73
2023-03-04T00:57:21.614Z,20.05
2023-03-04T00:58:23.137Z,20.25
2023-03-04T00:59:26.937Z,22.50
2023-03-04T01:00:28.922Z,22.73
2023-03-04T01:01:31.398Z,21.92
2023-03-04T01:02:33.026Z,23.27
2023-03-04T01:03:35.509Z,19.90
2023-03-04T01:04:37.520Z,22.75
2023-03-04T01:05:40.034Z,20.27
2023-03-04T01:06:41.611Z,19.83
2023-03-04T01:07:44.327Z,19.92
2023-03-04T01:08:46.808Z,22.05
2023-03-04T01:09:48.338Z,19.38
2023-03-04T01:10:51.020Z,23.45
2023-03-04T01:11:52.858Z,20.83
2023-03-04T01:12:55.360Z,19.75
2023-03-04T01:13:56.880Z,19.02
2023-03-04T01:15:00.856Z,21.08
2023-03-04T01:16:03.572Z,21.38
2023-03-04T01:17:06.047Z,22.55
2023-03-04T01:18:07.785Z,22.02
2023-03-04T01:19:10.269Z,19.65
2023-03-04T01:20:13.303Z,20.90
2023-03-04T01:21:15.932Z,24.15
2023-03-04T01:22:19.029Z,20.63
2023-03-04T01:23:21.630Z,20.25
2023-03-04T01:24:23.124Z,23.73
2023-03-04T01:25:25.571Z,19.05
2023-03-04T01:26:27.074Z,22.08
2023-03-04T01:27:29.779Z,22.63
2023-03-04T01:28:35.678Z,21.65
2023-03-04T01:29:38.174Z,21.17
2023-03-04T01:30:41.430Z,22.45
2023-03-04T01:31:43.930Z,23.98
2023-03-04T01:32:45.463Z,23.95
2023-03-04T01:33:47.910Z,23.38
2023-03-04T01:34:49.428Z,24.52
2023-03-04T01:35:52.023Z,22.00
2023-03-04T01:36:53.581Z,21.45
2023-03-04T01:37:56.296Z,22.20
2023-03-04T01:38:57.810Z,21.98
2023-03-04T01:40:00.303Z,21.58
2023-03-04T01:41:02.289Z,20.88
2023-03-04T01:42:04.960Z,21.10
2023-03-04T01:43:07.694Z,23.33
2023-03-04T01:44:11.620Z,20.30
2023-03-04T01:45:15.397Z,20.67
2023-03-04T01:46:21.111Z,22.35
2023-03-04T01:47:26.401Z,22.30
2023-03-04T01:48:34.010Z,21.83
2023-03-04T01:49:35.541Z,23.98
2023-03-04T01:50:37.995Z,23.33
2023-03-04T01:51:40.459Z,22.17
2023-03-04T01:52:43.901Z,21.80
2023-03-04T01:53:47.995Z,20.73
2023-03-04T01:54:50.605Z,22.42
2023-03-04T01:55:53.365Z,20.48
2023-03-04T01:56:57.326Z,22.20
2023-03-04T01:57:59.073Z,19.95
2023-03-04T01:59:09.966Z,21.90
2023-03-04T02:00:18.670Z,19.45
2023-03-04T02:01:22.511Z,23.67
2023-03-04T02:02:24.004Z,21.10
2023-03-04T02:03:26.614Z,23.73
2023-03-04T02:04:31.127Z,23.45
2023-03-04T02:05:34.122Z,21.50
2023-03-04T02:06:38.112Z,19.10
2023-03-04T02:07:39.702Z,20.05
2023-03-04T02:08:42.468Z,21.98
2023-03-04T02:09:43.985Z,22.15
2023-03-04T02:10:47.069Z,25.25
2023-03-04T02:11:50.629Z,22.15
2023-03-04T02:12:54.003Z,22.30
2023-03-04T02:13:55.520Z,21.65
2023-03-04T02:14:58.033Z,21.30
2023-03-04T02:15:59.593Z,19.35
2023-03-04T02:17:03.402Z,21.40
2023-03-04T02:18:13.865Z,22.60
2023-03-04T02:19:25.491Z,16.58
2023-03-04T02:20:43.525Z,24.92
2023-03-04T02:21:46.021Z,24.38
2023-03-04T02:22:57.584Z,20.23
2023-03-04T02:24:10.179Z,22.13
2023-03-04T02:25:18.615Z,23.70
2023-03-04T02:26:24.130Z,22.42
2023-03-04T02:27:25.751Z,24.70
2023-03-04T02:28:28.296Z,26.13
2023-03-04T02:29:29.841Z,25.67
2023-03-04T02:30:32.392Z,22.35
2023-03-04T02:31:36.529Z,23.30
2023-03-04T02:32:39.147Z,23.70
2023-03-04T02:33:40.677Z,23.52
2023-03-04T02:34:49.734Z,21.65
2023-03-04T02:35:51.335Z,23.85
2023-03-04T02:36:55.040Z,23.42
2023-03-04T02:37:56.526Z,23.77
2023-03-04T02:39:05.184Z,19.80
2023-03-04T02:40:14.383Z,20.30
2023-03-04T02:41:21.117Z,23.58
2023-03-04T02:42:24.006Z,24.52
2023-03-04T02:43:27.185Z,23.50
2023-03-04T02:44:30.721Z,23.77
2023-03-04T02:45:37.803Z,24.50
2023-03-04T02:46:39.419Z,25.27
2023-03-04T02:47:42.014Z,21.25
2023-03-04T02:48:43.563Z,24.08
2023-03-04T02:49:46.832Z,24.67
2023-03-04T02:50:51.001Z,24.55
2023-03-04T02:51:55.148Z,27.85
2023-03-04T02:52:56.701Z,24.35
2023-03-04T02:53:59.225Z,23.52
2023-03-04T02:55:00.782Z,29.17
2023-03-04T02:56:03.334Z,25.02
2023-03-04T02:57:06.984Z,22.35
2023-03-04T02:58:10.954Z,25.48
2023-03-04T02:59:12.482Z,28.63
2023-03-04T03:00:16.156Z,23.08
2023-03-04T03:01:17.671Z,27.92
2023-03-04T03:02:20.249Z,25.70
2023-03-04T03:03:21.936Z,26.77
2023-03-04T03:04:26.103Z,25.48
2023-03-04T03:05:31.085Z,25.38
2023-03-04T03:06:33.808Z,28.08
2023-03-04T03:07:35.324Z,25.23
2023-03-04T03:08:37.866Z,25.95
2023-03-04T03:09:39.378Z,23.52
2023-03-04T03:10:41.820Z,26.27
2023-03-04T03:11:43.469Z,24.75
2023-03-04T03:12:46.141Z,25.00
2023-03-04T03:13:49.020Z,24.85
2023-03-04T03:14:51.468Z,25.30
2023-03-04T03:15:53.005Z,23.42
2023-03-04T03:16:55.558Z,22.08
2023-03-04T03:17:57.511Z,25.75
2023-03-04T03:18:59.970Z,23.55
2023-03-04T03:20:01.597Z,24.48
2023-03-04T03:21:04.165Z,24.45
2023-03-04T03:22:05.869Z,25.92
2023-03-04T03:23:09.009Z,26.30
2023-03-04T03:24:10.649Z,27.30
2023-03-04T03:25:15.447Z,21.83
2023-03-04T03:26:17.422Z,25.73
2023-03-04T03:27:20.335Z,24.38
2023-03-04T03:28:21.831Z,21.98
2023-03-04T03:29:25.640Z,25.65
2023-03-04T03:30:27.183Z,22.88
2023-03-04T03:31:29.816Z,23.85
2023-03-04T03:32:31.380Z,24.83
2023-03-04T03:33:34.452Z,25.90
2023-03-04T03:34:36.044Z,23.73
2023-03-04T03:35:38.554Z,22.58
2023-03-04T03:36:40.184Z,22.58
2023-03-04T03:37:42.723Z,27.50
2023-03-04T03:38:44.277Z,22.17
2023-03-04T03:39:46.788Z,25.33
2023-03-04T03:40:49.293Z,23.58
2023-03-04T03:41:50.825Z,23.55
2023-03-04T03:42:53.339Z,24.70
2023-03-04T03:43:55.807Z,24.63
2023-03-04T03:44:58.656Z,25.50
2023-03-04T03:46:01.182Z,24.40
2023-03-04T03:47:03.103Z,23.63
2023-03-04T03:48:05.859Z,24.33
2023-03-04T03:49:07.397Z,26.55
2023-03-04T03:50:10.723Z,23.60
2023-03-04T03:51:12.379Z,21.00
2023-03-04T03:52:14.857Z,21.17
2023-03-04T03:53:16.517Z,28.10
2023-03-04T03:54:19.025Z,22.73
2023-03-04T03:55:21.447Z,23.50
2023-03-04T03:56:23.975Z,20.38
2023-03-04T03:57:25.518Z,25.77
2023-03-04T03:58:28.009Z,23.48
2023-03-04T03:59:29.586Z,25.02
2023-03-04T04:00:33.413Z,23.38
2023-03-04T04:01:34.986Z,20.67
2023-03-04T04:02:37.790Z,20.45
2023-03-04T04:03:39.753Z,20.40
2023-03-04T04:04:42.239Z,23.75
2023-03-04T04:05:43.786Z,22.23
2023-03-04T04:06:46.203Z,22.80
2023-03-04T04:07:47.731Z,22.65
2023-03-04T04:08:50.326Z,21.02
2023-03-04T04:09:51.939Z,24.60
2023-03-04T04:10:54.378Z,21.60
2023-03-04T04:11:56.951Z,25.05
2023-03-04T04:13:05.479Z,21.48
2023-03-04T04:14:07.014Z,23.30
2023-03-04T04:15:11.896Z,21.15
2023-03-04T04:16:14.892Z,25.52
2023-03-04T04:17:17.598Z,24.00
2023-03-04T04:18:19.257Z,24.27
2023-03-04T04:19:22.132Z,23.48
2023-03-04T04:20:26.097Z,23.77
2023-03-04T04:21:28.704Z,22.48
2023-03-04T04:22:30.257Z,24.17
2023-03-04T04:23:32.730Z,25.45
2023-03-04T04:24:34.308Z,23.85
2023-03-04T04:25:36.893Z,22.20
2023-03-04T04:26:38.641Z,23.08
2023-03-04T04:27:41.142Z,25.23
2023-03-04T04:28:42.633Z,24.40
2023-03-04T04:29:45.108Z,24.33
2023-03-04T04:30:46.639Z,24.20
2023-03-04T04:31:50.475Z,22.95
2023-03-04T04:32:52.032Z,22.33
2023-03-04T04:33:54.451Z,23.98
2023-03-04T04:34:55.944Z,22.70
2023-03-04T04:35:58.474Z,25.40
2023-03-04T04:37:01.229Z,23.15
2023-03-04T04:38:02.773Z,24.08
2023-03-04T04:39:05.791Z,24.42
2023-03-04T04:40:08.312Z,22.65
2023-03-04T04:41:20.111Z,25.23
2023-03-04T04:42:21.746Z,26.60
2023-03-04T04:43:24.236Z,26.85
2023-03-04T04:44:25.934Z,24.17
2023-03-04T04:45:28.512Z,25.25
2023-03-04T04:46:30.080Z,24.02
2023-03-04T04:47:33.868Z,25.15
2023-03-04T04:48:35.315Z,29.40
2023-03-04T04:49:37.961Z,26.42
2023-03-04T04:50:39.508Z,24.83
2023-03-04T04:51:42.015Z,24.10
2023-03-04T04:52:43.499Z,25.63
2023-03-04T04:53:45.934Z,26.63
2023-03-04T04:54:47.483Z,24.80
2023-03-04T04:55:49.923Z,26.50
2023-03-04T04:56:51.483Z,25.05
2023-03-04T04:57:53.895Z,28.35
2023-03-04T04:58:59.083Z,21.48
2023-03-04T05:00:00.883Z,26.83
2023-03-04T05:01:03.336Z,25.30
2023-03-04T05:02:05.079Z,22.70
2023-03-04T05:03:08.871Z,22.50
2023-03-04T05:04:10.705Z,26.08
2023-03-04T05:05:13.155Z,26.83
2023-03-04T05:06:14.639Z,20.65
2023-03-04T05:07:17.332Z,29.52
2023-03-04T05:08:18.778Z,21.40
2023-03-04T05:09:22.990Z,22.48
2023-03-04T05:10:24.731Z,26.13
2023-03-04T05:11:27.343Z,24.92
2023-03-04T05:12:28.829Z,20.70
2023-03-04T05:13:31.347Z,22.77
2023-03-04T05:14:32.913Z,20.33
2023-03-04T05:15:35.388Z,20.15
2023-03-04T05:16:36.886Z,24.50
2023-03-04T05:17:39.319Z,23.52
2023-03-04T05:18:42.624Z,29.25
2023-03-04T05:19:45.031Z,24.60
2023-03-04T05:20:50.506Z,23.02
2023-03-04T05:21:52.916Z,18.92
2023-03-04T05:22:54.695Z,23.42
2023-03-04T05:23:57.177Z,25.95
2023-03-04T05:24:58.676Z,22.15
2023-03-04T05:26:01.342Z,23.25
2023-03-04T05:27:03.121Z,21.90
2023-03-04T05:28:07.208Z,23.80
2023-03-04T05:29:08.722Z,20.27
2023-03-04T05:30:12.906Z,22.77
2023-03-04T05:31:14.836Z,23.77
2023-03-04T05:32:17.444Z,22.40
2023-03-04T05:33:19.606Z,22.45
2023-03-04T05:34:23.482Z,20.73
2023-03-04T05:35:27.212Z,22.00
2023-03-04T05:36:30.955Z,23.38
2023-03-04T05:37:32.441Z,28.00
2023-03-04T05:38:35.350Z,21.15
2023-03-04T05:39:36.883Z,26.25
2023-03-04T05:40:39.651Z,20.23
2023-03-04T05:41:41.110Z,20.25
2023-03-04T05:42:43.517Z,19.73
2023-03-04T05:43:44.962Z,26.98
2023-03-04T05:44:47.406Z,23.67
2023-03-04T05:45:49.262Z,24.80
2023-03-04T05:46:51.858Z,20.92
2023-03-04T05:47:53.682Z,25.65
2023-03-04T05:48:56.226Z,22.02
2023-03-04T05:49:59.087Z,24.20
2023-03-04T05:51:02.682Z,18.15
2023-03-04T05:52:04.210Z,25.15
2023-03-04T05:53:06.681Z,25.90
2023-03-04T05:54:08.192Z,23.52
2023-03-04T05:55:11.362Z,23.48
2023-03-04T05:56:15.659Z,22.65
2023-03-04T05:57:17.142Z,23.95
2023-03-04T05:58:20.286Z,22.02
2023-03-04T05:59:21.837Z,18.77
2023-03-04T06:00:24.368Z,20.08
2023-03-04T06:01:26.289Z,22.13
2023-03-04T06:02:28.739Z,24.65
2023-03-04T06:03:30.311Z,23.63
2023-03-04T06:04:33.037Z,21.80
2023-03-04T06:05:35.958Z,22.85
2023-03-04T06:06:38.385Z,20.77
2023-03-04T06:07:43.214Z,21.92
2023-03-04T06:08:45.687Z,20.20
2023-03-04T06:09:47.156Z,24.27
2023-03-04T06:10:54.078Z,30.13
2023-03-04T06:11:55.630Z,24.92
2023-03-04T06:12:58.055Z,27.42
2023-03-04T06:13:59.625Z,21.25
2023-03-04T06:15:02.870Z,19.90
2023-03-04T06:16:06.032Z,19.88
2023-03-04T06:17:07.572Z,18.88
2023-03-04T06:18:10.192Z,19.35
2023-03-04T06:19:11.771Z,23.35
2023-03-04T06:20:14.333Z,20.20
2023-03-04T06:21:17.179Z,19.92
2023-03-04T06:22:19.854Z,25.67
2023-03-04T06:23:21.427Z,22.85
2023-03-04T06:24:23.848Z,18.58
2023-03-04T06:25:25.403Z,23.05
2023-03-04T06:26:28.241Z,14.48
2023-03-04T06:27:29.956Z,19.83
2023-03-04T06:28:32.478Z,21.13
2023-03-04T06:29:33.975Z,20.05
2023-03-04T06:30:36.522Z,20.67
2023-03-04T06:31:38.162Z,20.20
2023-03-04T06:32:44.225Z,18.85
2023-03-04T06:33:46.248Z,24.63
2023-03-04T06:34:48.822Z,19.45
2023-03-04T06:35:54.563Z,20.30
2023-03-04T06:36:58.388Z,18.15
2023-03-04T06:37:59.919Z,21.63
2023-03-04T06:39:03.523Z,21.02
2023-03-04T06:40:07.694Z,18.48
2023-03-04T06:41:10.839Z,21.40
2023-03-04T06:42:13.434Z,19.20
2023-03-04T06:43:15.429Z,19.50
2023-03-04T06:44:18.260Z,17.92
2023-03-04T06:45:20.768Z,19.35
2023-03-04T06:46:22.993Z,20.88
2023-03-04T06:47:25.566Z,19.90
2023-03-04T06:48:28.153Z,22.17
2023-03-04T06:49:30.614Z,20.55
2023-03-04T06:50:33.139Z,24.63
2023-03-04T06:51:34.707Z,19.55
2023-03-04T06:52:38.570Z,19.95
2023-03-04T06:53:41.119Z,19.98
2023-03-04T06:54:43.577Z,20.35
2023-03-04T06:55:45.082Z,18.67
2023-03-04T06:56:47.523Z,26.00
2023-03-04T06:57:49.000Z,17.50
2023-03-04T06:58:51.720Z,22.27
2023-03-04T06:59:53.278Z,14.82
2023-03-04T07:00:55.820Z,18.75
2023-03-04T07:01:57.611Z,24.10
2023-03-04T07:03:00.528Z,15.82
2023-03-04T07:04:02.627Z,25.25
2023-03-04T07:05:05.790Z,21.15
2023-03-04T07:06:07.371Z,19.20
2023-03-04T07:07:09.871Z,19.20
2023-03-04T07:08:12.711Z,22.48
2023-03-04T07:09:15.123Z,19.00
2023-03-04T07:10:18.441Z,18.75
2023-03-04T07:11:21.990Z,16.42
2023-03-04T07:12:24.466Z,14.77
2023-03-04T07:13:26.248Z,19.55
2023-03-04T07:14:28.879Z,24.88
2023-03-04T07:15:30.826Z,19.42
2023-03-04T07:16:33.847Z,16.55
2023-03-04T07:17:35.408Z,18.08
2023-03-04T07:18:37.943Z,18.92
2023-03-04T07:19:39.491Z,19.35
2023-03-04T07:20:41.908Z,22.67
2023-03-04T07:21:43.474Z,18.58
2023-03-04T07:22:46.095Z,18.42
2023-03-04T07:23:48.992Z,18.17
2023-03-04T07:24:51.443Z,20.30
2023-03-04T07:25:53.102Z,24.02
2023-03-04T07:26:55.614Z,20.50
2023-03-04T07:27:57.145Z,19.90
2023-03-04T07:28:59.950Z,24.63
2023-03-04T07:30:01.454Z,15.48
2023-03-04T07:31:11.888Z,16.27
2023-03-04T07:32:14.560Z,14.98
2023-03-04T07:33:16.365Z,17.02
2023-03-04T07:34:18.738Z,17.40
2023-03-04T07:35:20.483Z,25.65
2023-03-04T07:36:22.935Z,19.92
2023-03-04T07:37:24.958Z,16.60
2023-03-04T07:38:30.284Z,15.43
2023-03-04T07:39:34.070Z,16.55
2023-03-04T07:40:35.735Z,21.30
2023-03-04T07:41:38.209Z,14.10
2023-03-04T07:42:39.752Z,22.35
2023-03-04T07:43:42.604Z,18.83
2023-03-04T07:44:44.076Z,19.48
2023-03-04T07:45:46.696Z,17.15
2023-03-04T07:46:48.184Z,18.60
2023-03-04T07:47:50.645Z,18.30
2023-03-04T07:48:52.442Z,19.23
2023-03-04T07:49:56.454Z,16.88
2023-03-04T07:51:06.497Z,19.30
2023-03-04T07:52:09.467Z,11.80
2023-03-04T07:53:11.466Z,19.67
2023-03-04T07:54:13.938Z,18.52
2023-03-04T07:55:17.225Z,13.88
2023-03-04T07:56:21.466Z,17.88
2023-03-04T07:57:22.947Z,16.38
2023-03-04T07:58:25.726Z,19.88
2023-03-04T07:59:28.315Z,16.23
2023-03-04T08:00:29.795Z,16.70
2023-03-04T08:01:33.804Z,15.30
2023-03-04T08:02:35.323Z,23.20
2023-03-04T08:03:44.639Z,15.45
2023-03-04T08:04:47.183Z,21.65
2023-03-04T08:05:48.740Z,17.88
2023-03-04T08:06:51.521Z,16.92
2023-03-04T08:07:53.046Z,19.60
2023-03-04T08:08:59.409Z,19.95
2023-03-04T08:10:01.632Z,19.27
2023-03-04T08:11:07.494Z,18.45
2023-03-04T08:12:09.113Z,15.48
2023-03-04T08:13:11.561Z,15.43
2023-03-04T08:14:14.807Z,15.00
2023-03-04T08:15:16.573Z,19.45
2023-03-04T08:16:20.541Z,17.23
2023-03-04T08:17:22.057Z,16.08
2023-03-04T08:18:24.759Z,17.50
2023-03-04T08:19:27.294Z,19.58
2023-03-04T08:20:28.823Z,18.00
2023-03-04T08:21:31.599Z,18.85
2023-03-04T08:22:33.075Z,18.60
2023-03-04T08:23:35.656Z,16.85
2023-03-04T08:24:37.208Z,21.77
2023-03-04T08:25:40.844Z,21.88
2023-03-04T08:26:46.842Z,14.02
2023-03-04T08:27:48.543Z,16.83
2023-03-04T08:28:51.632Z,21.85
2023-03-04T08:29:53.211Z,14.57
2023-03-04T08:30:56.706Z,22.60
2023-03-04T08:31:59.600Z,17.50
2023-03-04T08:33:03.885Z,20.75
2023-03-04T08:34:07.620Z,20.33
2023-03-04T08:35:09.206Z,19.92
2023-03-04T08:36:11.859Z,20.25
2023-03-04T08:37:14.313Z,16.60
2023-03-04T08:38:15.777Z,12.43
2023-03-04T08:39:20.018Z,15.25
2023-03-04T08:40:21.546Z,27.65
2023-03-04T08:41:26.171Z,15.77
2023-03-04T08:42:29.930Z,13.25
2023-03-04T08:43:31.544Z,12.98
2023-03-04T08:44:33.967Z,17.13
2023-03-04T08:45:35.574Z,21.20
2023-03-04T08:46:38.851Z,16.70
2023-03-04T08:47:40.834Z,14.27
2023-03-04T08:48:43.531Z,15.48
2023-03-04T08:49:45.044Z,18.92
2023-03-04T08:50:48.422Z,21.13
2023-03-04T08:51:50.825Z,15.25
2023-03-04T08:52:52.264Z,16.73
2023-03-04T08:53:54.729Z,16.25
2023-03-04T08:54:56.494Z,12.70
2023-03-04T08:55:58.971Z,14.75
2023-03-04T08:57:00.530Z,16.33
2023-03-04T08:58:04.951Z,12.13
2023-03-04T08:59:06.391Z,15.32
2023-03-04T09:00:10.175Z,11.40
2023-03-04T09:01:13.184Z,14.50
2023-03-04T09:02:15.728Z,12.23
2023-03-04T09:03:20.443Z,9.73
2023-03-04T09:04:22.034Z,13.82
2023-03-04T09:05:24.562Z,14.00
2023-03-04T09:06:26.084Z,16.67
2023-03-04T09:07:28.516Z,11.45
2023-03-04T09:08:30.571Z,14.57
2023-03-04T09:09:33.017Z,15.10
2023-03-04T09:10:34.529Z,11.45
2023-03-04T09:11:37.081Z,12.10
2023-03-04T09:12:38.708Z,15.95
2023-03-04T09:13:42.715Z,12.82
2023-03-04T09:14:44.215Z,14.55
2023-03-04T09:15:48.060Z,11.13
2023-03-04T09:16:50.472Z,12.70
2023-03-04T09:17:51.976Z,11.10
2023-03-04T09:18:54.464Z,13.80
2023-03-04T09:19:56.840Z,7.15
2023-03-04T09:20:59.416Z,10.50
2023-03-04T09:22:00.974Z,13.15
2023-03-04T09:23:03.491Z,15.05
2023-03-04T09:24:05.703Z,11.52
2023-03-04T09:25:12.878Z,15.13
2023-03-04T09:26:18.601Z,9.70
2023-03-04T09:27:20.148Z,12.18
2023-03-04T09:28:22.535Z,9.07
2023-03-04T09:29:25.529Z,13.48
2023-03-04T09:30:29.072Z,10.18
2023-03-04T09:31:31.096Z,8.32
2023-03-04T09:32:33.644Z,11.68
2023-03-04T09:33:35.184Z,10.52
2023-03-04T09:34:37.568Z,12.63
2023-03-04T09:35:39.099Z,13.75
2023-03-04T09:36:41.633Z,9.93
2023-03-04T09:37:43.191Z,8.20
2023-03-04T09:38:46.293Z,12.77
2023-03-04T09:39:49.944Z,9.65
2023-03-04T09:40:52.433Z,8.63
2023-03-04T09:41:58.060Z,6.07
2023-03-04T09:43:03.479Z,10.25
2023-03-04T09:44:12.815Z,9.30
2023-03-04T09:45:19.922Z,9.75
2023-03-04T09:46:30.401Z,13.50
2023-03-04T09:47:34.531Z,11.80
2023-03-04T09:48:44.457Z,10.45
2023-03-04T09:49:52.308Z,12.13
2023-03-04T09:51:15.508Z,9.82
2023-03-04T09:52:31.287Z,14.00
2023-03-04T09:53:41.727Z,12.02
2023-03-04T09:55:04.612Z,7.95
2023-03-04T09:56:07.413Z,8.85
2023-03-04T09:57:24.033Z,8.13
2023-03-04T09:58:38.647Z,8.18
2023-03-04T09:59:46.417Z,10.93
2023-03-04T10:00:57.297Z,9.15
2023-03-04T10:02:03.463Z,10.23
2023-03-04T10:03:13.212Z,8.45
2023-03-04T10:04:18.993Z,9.25
2023-03-04T10:05:23.077Z,9.10
2023-03-04T10:06:26.168Z,10.63
2023-03-04T10:07:36.460Z,14.75
2023-03-04T10:08:46.321Z,5.95
2023-03-04T10:09:52.999Z,12.90
2023-03-04T10:10:56.886Z,8.55
2023-03-04T10:12:03.395Z,8.98
2023-03-04T10:13:11.948Z,10.15
2023-03-04T10:14:32.576Z,7.97
2023-03-04T10:15:38.985Z,4.60
2023-03-04T10:16:49.829Z,7.07
2023-03-04T10:19:03.001Z,13.13
2023-03-04T10:20:07.752Z,6.57
2023-03-04T10:21:21.230Z,6.30
2023-03-04T10:22:30.285Z,6.65
2023-03-04T10:23:34.436Z,6.60
2023-03-04T10:24:36.852Z,7.32
2023-03-04T10:25:43.922Z,7.20
2023-03-04T10:26:48.164Z,8.90
2023-03-04T10:27:52.501Z,7.43
2023-03-04T10:28:54.981Z,8.75
2023-03-04T10:29:58.118Z,10.48
2023-03-04T10:31:05.875Z,7.90
2023-03-04T10:32:14.595Z,8.65
2023-03-04T10:33:19.352Z,9.25
2023-03-04T10:34:21.760Z,3.78
2023-03-04T10:35:32.433Z,7.13
2023-03-04T10:36:45.638Z,5.05
2023-03-04T10:37:51.346Z,7.43
2023-03-04T10:38:55.112Z,6.30
2023-03-04T10:40:03.551Z,6.38
2023-03-04T10:41:12.812Z,6.68
2023-03-04T10:42:30.039Z,4.25
2023-03-04T10:43:31.689Z,7.18
2023-03-04T10:44:38.060Z,5.15
2023-03-04T10:45:40.376Z,10.73
2023-03-04T10:46:45.045Z,7.60
2023-03-04T10:47:54.503Z,7.20
2023-03-04T10:48:56.565Z,5.35
2023-03-04T10:50:01.140Z,5.13
2023-03-04T10:51:19.503Z,4.45
2023-03-04T10:52:29.798Z,7.50
2023-03-04T10:53:38.260Z,4.55
2023-03-04T10:54:48.281Z,7.78
2023-03-04T10:55:49.913Z,4.07
2023-03-04T10:57:02.834Z,5.95
2023-03-04T10:58:07.430Z,5.28
2023-03-04T10:59:32.630Z,8.18
2023-03-04T11:00:37.842Z,3.13
2023-03-04T11:01:39.467Z,5.10
2023-03-04T11:02:41.882Z,3.78
2023-03-04T11:03:49.518Z,7.88
2023-03-04T11:04:55.630Z,3.95
2023-03-04T11:06:11.131Z,4.35
2023-03-04T11:07:15.566Z,5.65
2023-03-04T11:08:20.109Z,3.67
2023-03-04T11:09:24.220Z,5.75
2023-03-04T11:10:31.018Z,4.05
2023-03-04T11:11:42.875Z,3.85
2023-03-04T11:12:50.642Z,4.88
2023-03-04T11:13:56.242Z,2.78
2023-03-04T11:14:59.122Z,3.05
2023-03-04T11:16:05.425Z,4.78
2023-03-04T11:17:19.861Z,1.65
2023-03-04T11:18:26.707Z,8.23
2023-03-04T11:19:38.261Z,2.60
2023-03-04T11:20:43.782Z,1.55
2023-03-04T11:21:45.607Z,2.38
2023-03-04T11:22:48.297Z,3.58
2023-03-04T11:23:56.761Z,2.08
2023-03-04T11:25:04.570Z,1.15
2023-03-04T11:26:10.480Z,1.73
2023-03-04T11:27:20.349Z,2.00
2023-03-04T11:28:26.478Z,1.63
2023-03-04T11:29:34.358Z,2.38
2023-03-04T11:30:42.323Z,1.63
2023-03-04T11:31:52.492Z,1.88
2023-03-04T11:32:58.946Z,2.03
2023-03-04T11:34:08.907Z,2.70
2023-03-04T11:35:19.723Z,4.00
2023-03-04T11:37:33.608Z,2.22
2023-03-04T11:38:40.026Z,1.58
2023-03-04T11:39:47.152Z,3.42
2023-03-04T11:40:53.140Z,2.90
2023-03-04T11:41:59.786Z,1.65
2023-03-04T11:43:07.477Z,2.45
2023-03-04T11:44:12.523Z,3.97
2023-03-04T11:45:28.329Z,0.98
2023-03-04T11:47:00.399Z,3.05
2023-03-04T11:48:09.106Z,2.03
2023-03-04T11:49:47.987Z,3.10
2023-03-04T11:50:55.084Z,0.63
2023-03-04T11:52:06.785Z,1.67
2023-03-04T11:53:47.006Z,1.95
2023-03-04T11:55:02.593Z,3.38
2023-03-04T11:56:25.664Z,1.52
2023-03-04T11:57:35.535Z,3.38
2023-03-04T11:59:09.588Z,2.20
2023-03-04T12:00:25.531Z,1.63
2023-03-04T12:01:33.263Z,0.90
2023-03-04T12:02:42.249Z,3.25
2023-03-04T12:03:57.345Z,2.33
2023-03-04T12:05:20.835Z,1.17
2023-03-04T12:06:34.980Z,1.95
2023-03-04T12:08:09.414Z,3.28
2023-03-04T12:09:31.766Z,3.70
2023-03-04T12:10:42.580Z,2.53
2023-03-04T12:13:13.124Z,1.50
2023-03-04T12:14:41.278Z,2.35
2023-03-04T12:15:52.180Z,1.85
2023-03-04T12:17:12.324Z,2.05
2023-03-04T12:18:37.605Z,2.45
2023-03-04T12:19:53.873Z,2.85
2023-03-04T12:21:16.029Z,2.45
2023-03-04T12:22:36.873Z,2.17
2023-03-04T12:24:14.846Z,1.30
2023-03-04T12:25:35.027Z,0.95
2023-03-04T12:26:39.845Z,2.45
2023-03-04T12:27:49.247Z,4.53
2023-03-04T12:29:00.751Z,1.50
2023-03-04T12:30:06.910Z,0.70
2023-03-04T12:31:33.085Z,1.35
2023-03-04T12:32:44.086Z,2.05
2023-03-04T12:33:59.518Z,3.78
2023-03-04T12:35:16.429Z,2.08
2023-03-04T12:36:28.398Z,4.00
2023-03-04T12:38:03.710Z,3.15
2023-03-04T12:39:24.830Z,1.58
2023-03-04T12:40:37.383Z,1.20
2023-03-04T12:41:50.423Z,3.70
2023-03-04T12:43:03.811Z,1.58
2023-03-04T12:44:17.040Z,1.27
2023-03-04T12:45:25.463Z,1.90
2023-03-04T12:46:38.330Z,0.93
2023-03-04T12:47:51.518Z,1.35
2023-03-04T12:49:10.204Z,3.83
2023-03-04T12:50:32.954Z,3.42
2023-03-04T12:51:41.902Z,0.95
2023-03-04T12:52:55.066Z,1.23
2023-03-04T12:54:12.168Z,1.27
2023-03-04T12:55:18.993Z,1.73
2023-03-04T12:56:27.380Z,2.17
2023-03-04T12:57:31.733Z,2.55
2023-03-04T12:58:37.048Z,4.97
2023-03-04T12:59:43.113Z,1.13
2023-03-04T13:00:53.249Z,2.00
2023-03-04T13:02:04.997Z,1.88
2023-03-04T13:03:16.446Z,1.75
2023-03-04T13:04:28.191Z,0.65
2023-03-04T13:05:44.992Z,1.65
2023-03-04T13:06:53.970Z,0.73
2023-03-04T13:08:05.025Z,1.15
2023-03-04T13:09:17.044Z,0.80
2023-03-04T13:10:22.088Z,0.60
2023-03-04T13:11:47.200Z,0.70
2023-03-04T13:12:51.860Z,0.93
2023-03-04T13:14:01.953Z,1.25
2023-03-04T13:15:27.279Z,2.60
2023-03-04T13:16:32.697Z,0.50
2023-03-04T13:17:43.237Z,1.42
2023-03-04T13:19:52.518Z,1.35
2023-03-04T13:21:21.854Z,0.98
2023-03-04T13:22:46.093Z,1.38
2023-03-04T13:23:48.731Z,0.95
2023-03-04T13:24:51.081Z,0.93
2023-03-04T13:26:21.530Z,0.90
2023-03-04T13:27:48.447Z,1.15
2023-03-04T13:29:10.190Z,0.57
2023-03-04T13:30:44.268Z,0.98
2023-03-04T13:32:01.206Z,1.63
2023-03-04T13:33:49.902Z,1.40
2023-03-04T13:34:53.945Z,1.00
2023-03-04T13:36:01.770Z,1.20
2023-03-04T13:37:04.863Z,2.53
2023-03-04T13:38:22.533Z,1.10
2023-03-04T13:39:31.577Z,3.17
2023-03-04T13:40:37.589Z,2.28
2023-03-04T13:41:48.447Z,2.20
2023-03-04T13:42:51.859Z,1.50
2023-03-04T13:43:54.177Z,1.90
2023-03-04T13:45:02.240Z,2.45
2023-03-04T13:46:38.756Z,1.20
2023-03-04T13:47:44.997Z,2.25
2023-03-04T13:49:02.701Z,4.30
2023-03-04T13:50:25.463Z,3.08
2023-03-04T13:51:30.884Z,1.35
2023-03-04T13:52:40.058Z,1.42
2023-03-04T13:53:45.084Z,2.70
2023-03-04T13:54:46.606Z,3.78
2023-03-04T13:56:08.061Z,1.33
2023-03-04T13:57:20.338Z,1.13
2023-03-04T13:58:26.676Z,3.15
2023-03-04T13:59:33.191Z,1.23
2023-03-04T14:00:36.365Z,2.70
2023-03-04T14:01:52.591Z,2.25
2023-03-04T14:02:54.159Z,1.42
2023-03-04T14:03:57.041Z,1.40
2023-03-04T14:05:03.234Z,2.17
2023-03-04T14:06:15.461Z,1.23
2023-03-04T14:07:21.466Z,0.50
2023-03-04T14:08:25.704Z,0.73
2023-03-04T14:09:30.107Z,4.63
2023-03-04T14:10:33.761Z,1.50
2023-03-04T14:11:40.773Z,1.17